sensor_id;sensor_type;location;lat;lon;timestamp;P1;durP1;ratioP1;P2;durP2;ratioP2
19358;SDS011;9815;52.334;20.890;2023-12-20T00:01:45;31.93;;;16.13;;
19358;SDS011;9815;52.334;20.890;2023-12-20T00:04:15;28.30;;;15.47;;
19358;SDS011;9815;52.334;20.890;2023-12-20T00:06:44;27.90;;;16.37;;
19358;SDS011;9815;52.334;20.890;2023-12-20T00:09:12;26.07;;;15.30;;
19358;SDS011;9815;52.334;20.890;2023-12-20T00:11:41;23.67;;;14.53;;
19358;SDS011;9815;52.334;20.890;2023-12-20T00:14:09;24.83;;;14.57;;
19358;SDS011;9815;52.334;20.890;2023-12-20T00:16:37;27.37;;;15.40;;
19358;SDS011;9815;52.334;20.890;2023-12-20T00:19:06;28.97;;;15.90;;
19358;SDS011;9815;52.334;20.890;2023-12-20T00:21:36;27.20;;;16.07;;
19358;SDS011;9815;52.334;20.890;2023-12-20T00:24:05;26.53;;;15.30;;
19358;SDS011;9815;52.334;20.890;2023-12-20T00:26:34;27.97;;;14.90;;
19358;SDS011;9815;52.334;20.890;2023-12-20T00:29:02;27.20;;;14.80;;
19358;SDS011;9815;52.334;20.890;2023-12-20T00:31:30;24.23;;;14.47;;
19358;SDS011;9815;52.334;20.890;2023-12-20T00:33:59;29.17;;;16.00;;
19358;SDS011;9815;52.334;20.890;2023-12-20T00:36:27;26.70;;;15.77;;
19358;SDS011;9815;52.334;20.890;2023-12-20T00:38:58;26.33;;;15.50;;
19358;SDS011;9815;52.334;20.890;2023-12-20T00:41:26;21.93;;;14.53;;
19358;SDS011;9815;52.334;20.890;2023-12-20T00:43:54;26.43;;;15.00;;
19358;SDS011;9815;52.334;20.890;2023-12-20T00:46:22;27.37;;;15.20;;
19358;SDS011;9815;52.334;20.890;2023-12-20T00:48:51;30.60;;;15.53;;
19358;SDS011;9815;52.334;20.890;2023-12-20T00:51:19;30.37;;;15.97;;
19358;SDS011;9815;52.334;20.890;2023-12-20T00:53:49;27.73;;;15.13;;
19358;SDS011;9815;52.334;20.890;2023-12-20T00:56:22;26.60;;;14.90;;
19358;SDS011;9815;52.334;20.890;2023-12-20T00:58:51;26.73;;;15.10;;
19358;SDS011;9815;52.334;20.890;2023-12-20T01:01:19;24.77;;;15.03;;
19358;SDS011;9815;52.334;20.890;2023-12-20T01:03:49;25.70;;;14.60;;
19358;SDS011;9815;52.334;20.890;2023-12-20T01:06:18;24.80;;;14.80;;
19358;SDS011;9815;52.334;20.890;2023-12-20T01:08:46;27.00;;;15.03;;
19358;SDS011;9815;52.334;20.890;2023-12-20T01:11:15;26.57;;;14.27;;
19358;SDS011;9815;52.334;20.890;2023-12-20T01:13:45;29.23;;;15.80;;
19358;SDS011;9815;52.334;20.890;2023-12-20T01:16:13;25.40;;;14.30;;
19358;SDS011;9815;52.334;20.890;2023-12-20T01:18:41;25.53;;;15.27;;
19358;SDS011;9815;52.334;20.890;2023-12-20T01:21:10;28.20;;;16.17;;
19358;SDS011;9815;52.334;20.890;2023-12-20T01:23:38;25.20;;;14.20;;
19358;SDS011;9815;52.334;20.890;2023-12-20T01:26:07;25.03;;;14.57;;
19358;SDS011;9815;52.334;20.890;2023-12-20T01:28:35;25.80;;;14.87;;
19358;SDS011;9815;52.334;20.890;2023-12-20T01:31:05;26.03;;;14.80;;
19358;SDS011;9815;52.334;20.890;2023-12-20T01:33:34;25.30;;;14.90;;
19358;SDS011;9815;52.334;20.890;2023-12-20T01:36:03;27.37;;;15.77;;
19358;SDS011;9815;52.334;20.890;2023-12-20T01:38:32;27.13;;;15.00;;
19358;SDS011;9815;52.334;20.890;2023-12-20T01:41:00;29.17;;;15.60;;
19358;SDS011;9815;52.334;20.890;2023-12-20T01:43:29;28.17;;;15.97;;
19358;SDS011;9815;52.334;20.890;2023-12-20T01:46:14;28.00;;;14.90;;
19358;SDS011;9815;52.334;20.890;2023-12-20T01:48:43;28.50;;;15.53;;
19358;SDS011;9815;52.334;20.890;2023-12-20T01:51:12;26.60;;;15.43;;
19358;SDS011;9815;52.334;20.890;2023-12-20T01:53:40;26.93;;;15.60;;
19358;SDS011;9815;52.334;20.890;2023-12-20T01:56:09;27.07;;;15.27;;
19358;SDS011;9815;52.334;20.890;2023-12-20T01:58:45;27.37;;;14.90;;
19358;SDS011;9815;52.334;20.890;2023-12-20T02:01:16;25.50;;;14.57;;
19358;SDS011;9815;52.334;20.890;2023-12-20T02:03:45;23.67;;;13.80;;
19358;SDS011;9815;52.334;20.890;2023-12-20T02:06:14;24.30;;;14.67;;
19358;SDS011;9815;52.334;20.890;2023-12-20T02:08:43;24.00;;;14.27;;
19358;SDS011;9815;52.334;20.890;2023-12-20T02:11:12;28.80;;;15.10;;
19358;SDS011;9815;52.334;20.890;2023-12-20T02:13:40;27.33;;;15.60;;
19358;SDS011;9815;52.334;20.890;2023-12-20T02:16:09;26.90;;;15.13;;
19358;SDS011;9815;52.334;20.890;2023-12-20T02:18:39;23.50;;;13.23;;
19358;SDS011;9815;52.334;20.890;2023-12-20T02:21:07;21.83;;;13.10;;
19358;SDS011;9815;52.334;20.890;2023-12-20T02:23:38;20.40;;;13.17;;
19358;SDS011;9815;52.334;20.890;2023-12-20T02:26:07;25.07;;;12.77;;
19358;SDS011;9815;52.334;20.890;2023-12-20T02:28:35;24.53;;;13.00;;
19358;SDS011;9815;52.334;20.890;2023-12-20T02:31:04;24.43;;;12.77;;
19358;SDS011;9815;52.334;20.890;2023-12-20T02:33:32;22.33;;;13.00;;
19358;SDS011;9815;52.334;20.890;2023-12-20T02:36:01;19.93;;;11.63;;
19358;SDS011;9815;52.334;20.890;2023-12-20T02:38:29;23.40;;;12.57;;
19358;SDS011;9815;52.334;20.890;2023-12-20T02:40:59;19.27;;;11.80;;
19358;SDS011;9815;52.334;20.890;2023-12-20T02:43:27;22.23;;;11.17;;
19358;SDS011;9815;52.334;20.890;2023-12-20T02:45:56;19.50;;;11.03;;
19358;SDS011;9815;52.334;20.890;2023-12-20T02:48:24;18.87;;;11.57;;
19358;SDS011;9815;52.334;20.890;2023-12-20T02:50:53;20.80;;;11.60;;
19358;SDS011;9815;52.334;20.890;2023-12-20T02:53:22;17.07;;;10.50;;
19358;SDS011;9815;52.334;20.890;2023-12-20T02:55:50;18.73;;;10.77;;
19358;SDS011;9815;52.334;20.890;2023-12-20T02:58:20;18.50;;;10.83;;
19358;SDS011;9815;52.334;20.890;2023-12-20T03:00:49;17.10;;;10.17;;
19358;SDS011;9815;52.334;20.890;2023-12-20T03:03:17;17.17;;;10.73;;
19358;SDS011;9815;52.334;20.890;2023-12-20T03:05:46;16.90;;;10.17;;
19358;SDS011;9815;52.334;20.890;2023-12-20T03:08:14;19.07;;;10.13;;
19358;SDS011;9815;52.334;20.890;2023-12-20T03:10:43;16.63;;;9.83;;
19358;SDS011;9815;52.334;20.890;2023-12-20T03:13:11;16.90;;;10.47;;
19358;SDS011;9815;52.334;20.890;2023-12-20T03:15:41;16.47;;;10.30;;
19358;SDS011;9815;52.334;20.890;2023-12-20T03:18:09;16.60;;;10.17;;
19358;SDS011;9815;52.334;20.890;2023-12-20T03:20:38;15.50;;;9.67;;
19358;SDS011;9815;52.334;20.890;2023-12-20T03:23:07;15.70;;;9.87;;
19358;SDS011;9815;52.334;20.890;2023-12-20T03:25:36;15.47;;;9.47;;
19358;SDS011;9815;52.334;20.890;2023-12-20T03:28:04;16.60;;;10.10;;
19358;SDS011;9815;52.334;20.890;2023-12-20T03:30:33;16.43;;;10.10;;
19358;SDS011;9815;52.334;20.890;2023-12-20T03:33:02;18.83;;;10.47;;
19358;SDS011;9815;52.334;20.890;2023-12-20T03:35:31;18.10;;;11.20;;
19358;SDS011;9815;52.334;20.890;2023-12-20T03:37:59;16.80;;;9.77;;
19358;SDS011;9815;52.334;20.890;2023-12-20T03:40:28;16.77;;;10.47;;
19358;SDS011;9815;52.334;20.890;2023-12-20T03:42:56;17.20;;;9.70;;
19358;SDS011;9815;52.334;20.890;2023-12-20T03:45:24;16.40;;;10.30;;
19358;SDS011;9815;52.334;20.890;2023-12-20T03:47:53;18.40;;;11.17;;
19358;SDS011;9815;52.334;20.890;2023-12-20T03:50:24;16.70;;;10.70;;
19358;SDS011;9815;52.334;20.890;2023-12-20T03:52:53;19.63;;;11.07;;
19358;SDS011;9815;52.334;20.890;2023-12-20T03:55:21;17.97;;;10.20;;
19358;SDS011;9815;52.334;20.890;2023-12-20T03:57:50;20.87;;;11.20;;
19358;SDS011;9815;52.334;20.890;2023-12-20T04:00:18;18.77;;;11.30;;
19358;SDS011;9815;52.334;20.890;2023-12-20T04:02:47;19.93;;;11.17;;
19358;SDS011;9815;52.334;20.890;2023-12-20T04:05:15;18.67;;;10.83;;
19358;SDS011;9815;52.334;20.890;2023-12-20T04:07:45;21.60;;;11.67;;
19358;SDS011;9815;52.334;20.890;2023-12-20T04:10:14;19.13;;;10.93;;
19358;SDS011;9815;52.334;20.890;2023-12-20T04:12:43;23.10;;;11.07;;
19358;SDS011;9815;52.334;20.890;2023-12-20T04:15:11;19.33;;;11.13;;
19358;SDS011;9815;52.334;20.890;2023-12-20T04:17:40;17.53;;;11.13;;
19358;SDS011;9815;52.334;20.890;2023-12-20T04:20:09;19.07;;;11.87;;
19358;SDS011;9815;52.334;20.890;2023-12-20T04:22:38;19.27;;;11.20;;
19358;SDS011;9815;52.334;20.890;2023-12-20T04:25:08;19.23;;;11.23;;
19358;SDS011;9815;52.334;20.890;2023-12-20T04:27:36;17.20;;;10.80;;
19358;SDS011;9815;52.334;20.890;2023-12-20T04:30:05;19.97;;;11.43;;
19358;SDS011;9815;52.334;20.890;2023-12-20T04:32:35;16.57;;;10.10;;
19358;SDS011;9815;52.334;20.890;2023-12-20T04:35:04;19.43;;;10.50;;
19358;SDS011;9815;52.334;20.890;2023-12-20T04:37:33;16.67;;;10.03;;
19358;SDS011;9815;52.334;20.890;2023-12-20T04:40:02;18.43;;;11.03;;
19358;SDS011;9815;52.334;20.890;2023-12-20T04:42:33;18.37;;;10.93;;
19358;SDS011;9815;52.334;20.890;2023-12-20T04:45:01;16.60;;;10.37;;
19358;SDS011;9815;52.334;20.890;2023-12-20T04:47:30;18.83;;;10.37;;
19358;SDS011;9815;52.334;20.890;2023-12-20T04:49:58;22.63;;;11.27;;
19358;SDS011;9815;52.334;20.890;2023-12-20T04:52:27;19.80;;;11.57;;
19358;SDS011;9815;52.334;20.890;2023-12-20T04:54:56;16.47;;;10.33;;
19358;SDS011;9815;52.334;20.890;2023-12-20T04:57:24;17.00;;;10.20;;
19358;SDS011;9815;52.334;20.890;2023-12-20T04:59:54;19.43;;;11.37;;
19358;SDS011;9815;52.334;20.890;2023-12-20T05:02:22;18.87;;;10.13;;
19358;SDS011;9815;52.334;20.890;2023-12-20T05:04:50;18.73;;;11.13;;
19358;SDS011;9815;52.334;20.890;2023-12-20T05:07:21;17.53;;;10.83;;
19358;SDS011;9815;52.334;20.890;2023-12-20T05:09:50;19.63;;;11.00;;
19358;SDS011;9815;52.334;20.890;2023-12-20T05:12:18;18.87;;;11.40;;
19358;SDS011;9815;52.334;20.890;2023-12-20T05:14:46;20.80;;;11.83;;
19358;SDS011;9815;52.334;20.890;2023-12-20T05:17:16;17.50;;;11.03;;
19358;SDS011;9815;52.334;20.890;2023-12-20T05:19:44;17.83;;;10.60;;
19358;SDS011;9815;52.334;20.890;2023-12-20T05:22:13;19.43;;;11.90;;
19358;SDS011;9815;52.334;20.890;2023-12-20T05:24:41;27.43;;;13.67;;
19358;SDS011;9815;52.334;20.890;2023-12-20T05:27:10;23.10;;;12.83;;
19358;SDS011;9815;52.334;20.890;2023-12-20T05:29:38;20.90;;;12.27;;
19358;SDS011;9815;52.334;20.890;2023-12-20T05:32:07;17.43;;;11.23;;
19358;SDS011;9815;52.334;20.890;2023-12-20T05:34:37;23.13;;;12.67;;
19358;SDS011;9815;52.334;20.890;2023-12-20T05:37:05;23.80;;;12.17;;
19358;SDS011;9815;52.334;20.890;2023-12-20T05:39:33;22.83;;;13.63;;
19358;SDS011;9815;52.334;20.890;2023-12-20T05:42:02;26.10;;;13.80;;
19358;SDS011;9815;52.334;20.890;2023-12-20T05:44:30;28.63;;;14.63;;
19358;SDS011;9815;52.334;20.890;2023-12-20T05:46:59;26.40;;;14.13;;
19358;SDS011;9815;52.334;20.890;2023-12-20T05:49:27;23.97;;;13.97;;
19358;SDS011;9815;52.334;20.890;2023-12-20T05:51:57;24.77;;;13.83;;
19358;SDS011;9815;52.334;20.890;2023-12-20T05:54:25;26.90;;;14.17;;
19358;SDS011;9815;52.334;20.890;2023-12-20T05:56:54;29.00;;;14.17;;
19358;SDS011;9815;52.334;20.890;2023-12-20T05:59:22;22.43;;;13.30;;
19358;SDS011;9815;52.334;20.890;2023-12-20T06:01:51;24.27;;;13.33;;
19358;SDS011;9815;52.334;20.890;2023-12-20T06:04:19;25.10;;;13.37;;
19358;SDS011;9815;52.334;20.890;2023-12-20T06:06:49;26.20;;;13.87;;
19358;SDS011;9815;52.334;20.890;2023-12-20T06:09:19;26.27;;;12.53;;
19358;SDS011;9815;52.334;20.890;2023-12-20T06:11:47;26.10;;;13.83;;
19358;SDS011;9815;52.334;20.890;2023-12-20T06:14:16;26.60;;;13.23;;
19358;SDS011;9815;52.334;20.890;2023-12-20T06:16:45;25.33;;;13.23;;
19358;SDS011;9815;52.334;20.890;2023-12-20T06:19:14;25.40;;;14.30;;
19358;SDS011;9815;52.334;20.890;2023-12-20T06:21:42;30.57;;;15.27;;
19358;SDS011;9815;52.334;20.890;2023-12-20T06:24:11;39.47;;;21.07;;
19358;SDS011;9815;52.334;20.890;2023-12-20T06:26:40;34.13;;;17.13;;
19358;SDS011;9815;52.334;20.890;2023-12-20T06:29:09;30.50;;;14.70;;
19358;SDS011;9815;52.334;20.890;2023-12-20T06:31:37;25.07;;;13.93;;
19358;SDS011;9815;52.334;20.890;2023-12-20T06:34:06;26.37;;;12.60;;
19358;SDS011;9815;52.334;20.890;2023-12-20T06:36:34;27.07;;;14.20;;
19358;SDS011;9815;52.334;20.890;2023-12-20T06:39:03;26.43;;;14.37;;
19358;SDS011;9815;52.334;20.890;2023-12-20T06:41:31;27.53;;;14.40;;
19358;SDS011;9815;52.334;20.890;2023-12-20T06:44:01;24.80;;;13.77;;
19358;SDS011;9815;52.334;20.890;2023-12-20T06:46:29;27.27;;;13.50;;
19358;SDS011;9815;52.334;20.890;2023-12-20T06:48:58;24.10;;;13.37;;
19358;SDS011;9815;52.334;20.890;2023-12-20T06:51:26;24.83;;;14.03;;
19358;SDS011;9815;52.334;20.890;2023-12-20T06:53:55;23.53;;;13.47;;
19358;SDS011;9815;52.334;20.890;2023-12-20T06:56:24;26.17;;;13.30;;
19358;SDS011;9815;52.334;20.890;2023-12-20T06:58:52;28.57;;;14.10;;
19358;SDS011;9815;52.334;20.890;2023-12-20T07:01:22;24.33;;;13.20;;
19358;SDS011;9815;52.334;20.890;2023-12-20T07:03:51;24.93;;;13.23;;
19358;SDS011;9815;52.334;20.890;2023-12-20T07:06:19;24.73;;;13.50;;
19358;SDS011;9815;52.334;20.890;2023-12-20T07:08:50;25.27;;;12.87;;
19358;SDS011;9815;52.334;20.890;2023-12-20T07:11:19;24.80;;;12.70;;
19358;SDS011;9815;52.334;20.890;2023-12-20T07:13:48;24.77;;;13.00;;
19358;SDS011;9815;52.334;20.890;2023-12-20T07:16:16;21.80;;;12.17;;
19358;SDS011;9815;52.334;20.890;2023-12-20T07:18:46;28.07;;;14.03;;
19358;SDS011;9815;52.334;20.890;2023-12-20T07:21:15;28.73;;;13.33;;
19358;SDS011;9815;52.334;20.890;2023-12-20T07:23:43;27.10;;;12.50;;
19358;SDS011;9815;52.334;20.890;2023-12-20T07:26:11;26.40;;;12.57;;
19358;SDS011;9815;52.334;20.890;2023-12-20T07:28:40;28.67;;;13.60;;
19358;SDS011;9815;52.334;20.890;2023-12-20T07:31:08;27.93;;;13.63;;
19358;SDS011;9815;52.334;20.890;2023-12-20T07:33:37;24.03;;;12.90;;
19358;SDS011;9815;52.334;20.890;2023-12-20T07:36:07;25.23;;;13.17;;
19358;SDS011;9815;52.334;20.890;2023-12-20T07:38:36;20.40;;;12.40;;
19358;SDS011;9815;52.334;20.890;2023-12-20T07:41:04;22.60;;;12.13;;
19358;SDS011;9815;52.334;20.890;2023-12-20T07:43:32;20.83;;;11.73;;
19358;SDS011;9815;52.334;20.890;2023-12-20T07:46:03;21.43;;;11.70;;
19358;SDS011;9815;52.334;20.890;2023-12-20T07:48:33;23.00;;;11.97;;
19358;SDS011;9815;52.334;20.890;2023-12-20T07:51:02;20.30;;;11.57;;
19358;SDS011;9815;52.334;20.890;2023-12-20T07:53:37;21.63;;;11.87;;
19358;SDS011;9815;52.334;20.890;2023-12-20T07:56:13;23.37;;;12.80;;
19358;SDS011;9815;52.334;20.890;2023-12-20T07:58:42;27.07;;;12.73;;
19358;SDS011;9815;52.334;20.890;2023-12-20T08:01:19;23.40;;;13.13;;
19358;SDS011;9815;52.334;20.890;2023-12-20T08:03:48;23.93;;;12.77;;
19358;SDS011;9815;52.334;20.890;2023-12-20T08:06:18;21.00;;;11.47;;
19358;SDS011;9815;52.334;20.890;2023-12-20T08:08:48;22.03;;;12.13;;
19358;SDS011;9815;52.334;20.890;2023-12-20T08:11:27;20.67;;;11.50;;
19358;SDS011;9815;52.334;20.890;2023-12-20T08:13:56;23.03;;;12.07;;
19358;SDS011;9815;52.334;20.890;2023-12-20T08:16:25;24.43;;;12.10;;
19358;SDS011;9815;52.334;20.890;2023-12-20T08:18:53;26.13;;;13.07;;
19358;SDS011;9815;52.334;20.890;2023-12-20T08:21:22;18.47;;;11.30;;
19358;SDS011;9815;52.334;20.890;2023-12-20T08:23:52;19.70;;;11.27;;
19358;SDS011;9815;52.334;20.890;2023-12-20T08:26:20;20.60;;;10.97;;
19358;SDS011;9815;52.334;20.890;2023-12-20T08:28:48;22.97;;;10.60;;
19358;SDS011;9815;52.334;20.890;2023-12-20T08:31:17;18.40;;;10.63;;
19358;SDS011;9815;52.334;20.890;2023-12-20T08:33:46;16.37;;;9.57;;
19358;SDS011;9815;52.334;20.890;2023-12-20T08:36:16;18.00;;;10.00;;
19358;SDS011;9815;52.334;20.890;2023-12-20T08:38:45;25.47;;;10.47;;
19358;SDS011;9815;52.334;20.890;2023-12-20T08:41:15;18.57;;;10.73;;
19358;SDS011;9815;52.334;20.890;2023-12-20T08:43:43;17.40;;;10.03;;
19358;SDS011;9815;52.334;20.890;2023-12-20T08:46:13;17.00;;;9.53;;
19358;SDS011;9815;52.334;20.890;2023-12-20T08:48:42;18.63;;;8.93;;
19358;SDS011;9815;52.334;20.890;2023-12-20T08:51:12;15.37;;;9.20;;
19358;SDS011;9815;52.334;20.890;2023-12-20T08:53:41;18.50;;;9.13;;
19358;SDS011;9815;52.334;20.890;2023-12-20T08:56:12;15.47;;;9.17;;
19358;SDS011;9815;52.334;20.890;2023-12-20T08:58:42;17.57;;;9.13;;
19358;SDS011;9815;52.334;20.890;2023-12-20T09:01:10;16.57;;;9.40;;
19358;SDS011;9815;52.334;20.890;2023-12-20T09:03:39;14.57;;;8.13;;
19358;SDS011;9815;52.334;20.890;2023-12-20T09:06:08;14.43;;;7.93;;
19358;SDS011;9815;52.334;20.890;2023-12-20T09:08:36;14.43;;;9.00;;
19358;SDS011;9815;52.334;20.890;2023-12-20T09:11:06;15.77;;;8.70;;
19358;SDS011;9815;52.334;20.890;2023-12-20T09:13:35;14.57;;;8.40;;
19358;SDS011;9815;52.334;20.890;2023-12-20T09:16:05;14.57;;;8.63;;
19358;SDS011;9815;52.334;20.890;2023-12-20T09:18:34;15.13;;;9.37;;
19358;SDS011;9815;52.334;20.890;2023-12-20T09:21:02;18.63;;;10.30;;
19358;SDS011;9815;52.334;20.890;2023-12-20T09:23:31;16.23;;;9.77;;
19358;SDS011;9815;52.334;20.890;2023-12-20T09:25:59;28.27;;;9.37;;
19358;SDS011;9815;52.334;20.890;2023-12-20T09:28:28;16.93;;;9.47;;
19358;SDS011;9815;52.334;20.890;2023-12-20T09:30:56;15.47;;;8.83;;
19358;SDS011;9815;52.334;20.890;2023-12-20T09:33:26;13.13;;;8.77;;
19358;SDS011;9815;52.334;20.890;2023-12-20T09:35:55;17.97;;;9.60;;
19358;SDS011;9815;52.334;20.890;2023-12-20T09:38:23;15.43;;;9.60;;
19358;SDS011;9815;52.334;20.890;2023-12-20T09:40:52;13.73;;;8.03;;
19358;SDS011;9815;52.334;20.890;2023-12-20T09:43:22;13.27;;;8.43;;
19358;SDS011;9815;52.334;20.890;2023-12-20T09:45:55;13.73;;;8.30;;
19358;SDS011;9815;52.334;20.890;2023-12-20T09:48:30;15.20;;;9.10;;
19358;SDS011;9815;52.334;20.890;2023-12-20T09:51:00;17.37;;;9.20;;
19358;SDS011;9815;52.334;20.890;2023-12-20T09:53:28;14.27;;;8.83;;
19358;SDS011;9815;52.334;20.890;2023-12-20T09:55:58;16.43;;;8.87;;
19358;SDS011;9815;52.334;20.890;2023-12-20T09:58:27;15.77;;;9.33;;
19358;SDS011;9815;52.334;20.890;2023-12-20T10:00:56;17.60;;;9.80;;
19358;SDS011;9815;52.334;20.890;2023-12-20T10:03:25;16.57;;;9.87;;
19358;SDS011;9815;52.334;20.890;2023-12-20T10:05:56;17.67;;;9.77;;
19358;SDS011;9815;52.334;20.890;2023-12-20T10:08:25;17.50;;;10.30;;
19358;SDS011;9815;52.334;20.890;2023-12-20T10:10:54;18.87;;;10.63;;
19358;SDS011;9815;52.334;20.890;2023-12-20T10:13:24;19.33;;;11.10;;
19358;SDS011;9815;52.334;20.890;2023-12-20T10:15:54;17.10;;;9.77;;
19358;SDS011;9815;52.334;20.890;2023-12-20T10:18:24;14.63;;;8.57;;
19358;SDS011;9815;52.334;20.890;2023-12-20T10:21:06;15.23;;;8.90;;
19358;SDS011;9815;52.334;20.890;2023-12-20T10:23:37;15.37;;;9.07;;
19358;SDS011;9815;52.334;20.890;2023-12-20T10:26:06;20.30;;;10.23;;
19358;SDS011;9815;52.334;20.890;2023-12-20T10:28:34;17.27;;;9.60;;
19358;SDS011;9815;52.334;20.890;2023-12-20T10:31:04;14.57;;;9.37;;
19358;SDS011;9815;52.334;20.890;2023-12-20T10:33:32;14.90;;;9.77;;
19358;SDS011;9815;52.334;20.890;2023-12-20T10:36:01;17.83;;;9.97;;
19358;SDS011;9815;52.334;20.890;2023-12-20T10:38:31;18.53;;;10.30;;
19358;SDS011;9815;52.334;20.890;2023-12-20T10:41:01;17.13;;;11.07;;
19358;SDS011;9815;52.334;20.890;2023-12-20T10:43:32;21.43;;;12.73;;
19358;SDS011;9815;52.334;20.890;2023-12-20T10:46:02;20.97;;;11.27;;
19358;SDS011;9815;52.334;20.890;2023-12-20T10:48:31;19.37;;;10.87;;
19358;SDS011;9815;52.334;20.890;2023-12-20T10:51:01;21.93;;;11.20;;
19358;SDS011;9815;52.334;20.890;2023-12-20T10:53:29;20.33;;;11.33;;
19358;SDS011;9815;52.334;20.890;2023-12-20T10:56:03;23.57;;;12.90;;
19358;SDS011;9815;52.334;20.890;2023-12-20T10:58:33;20.70;;;11.67;;
19358;SDS011;9815;52.334;20.890;2023-12-20T11:01:03;20.27;;;12.13;;
19358;SDS011;9815;52.334;20.890;2023-12-20T11:03:34;22.00;;;12.53;;
19358;SDS011;9815;52.334;20.890;2023-12-20T11:06:07;23.83;;;14.03;;
19358;SDS011;9815;52.334;20.890;2023-12-20T11:08:44;19.07;;;11.73;;
19358;SDS011;9815;52.334;20.890;2023-12-20T11:11:18;19.37;;;11.30;;
19358;SDS011;9815;52.334;20.890;2023-12-20T11:13:54;19.10;;;12.00;;
19358;SDS011;9815;52.334;20.890;2023-12-20T11:16:27;21.80;;;12.00;;
19358;SDS011;9815;52.334;20.890;2023-12-20T11:19:11;25.03;;;12.60;;
19358;SDS011;9815;52.334;20.890;2023-12-20T11:21:41;22.20;;;12.07;;
19358;SDS011;9815;52.334;20.890;2023-12-20T11:24:11;20.47;;;11.43;;
19358;SDS011;9815;52.334;20.890;2023-12-20T11:26:41;17.70;;;11.03;;
19358;SDS011;9815;52.334;20.890;2023-12-20T11:29:30;18.57;;;11.43;;
19358;SDS011;9815;52.334;20.890;2023-12-20T11:32:03;21.20;;;10.80;;
19358;SDS011;9815;52.334;20.890;2023-12-20T11:34:56;21.90;;;10.83;;
19358;SDS011;9815;52.334;20.890;2023-12-20T11:37:28;18.70;;;11.00;;
19358;SDS011;9815;52.334;20.890;2023-12-20T11:40:02;18.33;;;10.33;;
19358;SDS011;9815;52.334;20.890;2023-12-20T11:42:36;15.70;;;10.40;;
19358;SDS011;9815;52.334;20.890;2023-12-20T11:45:08;17.23;;;9.97;;
19358;SDS011;9815;52.334;20.890;2023-12-20T11:47:37;20.77;;;10.40;;
19358;SDS011;9815;52.334;20.890;2023-12-20T11:50:06;18.63;;;10.10;;
19358;SDS011;9815;52.334;20.890;2023-12-20T11:52:35;17.60;;;10.33;;
19358;SDS011;9815;52.334;20.890;2023-12-20T11:55:05;17.03;;;9.63;;
19358;SDS011;9815;52.334;20.890;2023-12-20T11:57:35;18.50;;;10.07;;
19358;SDS011;9815;52.334;20.890;2023-12-20T12:00:04;16.03;;;9.13;;
19358;SDS011;9815;52.334;20.890;2023-12-20T12:02:40;15.97;;;9.73;;
19358;SDS011;9815;52.334;20.890;2023-12-20T12:05:11;16.37;;;8.67;;
19358;SDS011;9815;52.334;20.890;2023-12-20T12:07:40;14.77;;;9.20;;
19358;SDS011;9815;52.334;20.890;2023-12-20T12:10:10;16.47;;;9.50;;
19358;SDS011;9815;52.334;20.890;2023-12-20T12:12:39;14.87;;;9.20;;
19358;SDS011;9815;52.334;20.890;2023-12-20T12:15:08;16.40;;;9.43;;
19358;SDS011;9815;52.334;20.890;2023-12-20T12:17:37;17.47;;;8.90;;
19358;SDS011;9815;52.334;20.890;2023-12-20T12:20:06;15.30;;;7.67;;
19358;SDS011;9815;52.334;20.890;2023-12-20T12:22:36;14.63;;;7.70;;
19358;SDS011;9815;52.334;20.890;2023-12-20T12:25:12;15.57;;;7.30;;
19358;SDS011;9815;52.334;20.890;2023-12-20T12:27:41;15.90;;;7.87;;
19358;SDS011;9815;52.334;20.890;2023-12-20T12:30:11;13.40;;;7.23;;
19358;SDS011;9815;52.334;20.890;2023-12-20T12:32:40;11.93;;;7.40;;
19358;SDS011;9815;52.334;20.890;2023-12-20T12:35:08;13.60;;;8.00;;
19358;SDS011;9815;52.334;20.890;2023-12-20T12:37:38;16.17;;;9.43;;
19358;SDS011;9815;52.334;20.890;2023-12-20T12:40:09;20.37;;;9.73;;
19358;SDS011;9815;52.334;20.890;2023-12-20T12:42:40;20.27;;;10.23;;
19358;SDS011;9815;52.334;20.890;2023-12-20T12:45:10;17.23;;;9.87;;
19358;SDS011;9815;52.334;20.890;2023-12-20T12:47:39;22.00;;;11.63;;
19358;SDS011;9815;52.334;20.890;2023-12-20T12:50:08;18.23;;;10.97;;
19358;SDS011;9815;52.334;20.890;2023-12-20T12:52:36;19.20;;;10.80;;
19358;SDS011;9815;52.334;20.890;2023-12-20T12:55:05;17.13;;;10.90;;
19358;SDS011;9815;52.334;20.890;2023-12-20T12:57:34;17.10;;;10.83;;
19358;SDS011;9815;52.334;20.890;2023-12-20T13:00:05;19.13;;;11.10;;
19358;SDS011;9815;52.334;20.890;2023-12-20T13:02:35;18.30;;;10.77;;
19358;SDS011;9815;52.334;20.890;2023-12-20T13:05:08;21.37;;;9.97;;
19358;SDS011;9815;52.334;20.890;2023-12-20T13:07:37;18.73;;;10.17;;
19358;SDS011;9815;52.334;20.890;2023-12-20T13:10:07;20.23;;;10.70;;
19358;SDS011;9815;52.334;20.890;2023-12-20T13:12:37;18.40;;;10.43;;
19358;SDS011;9815;52.334;20.890;2023-12-20T13:15:07;21.77;;;12.47;;
19358;SDS011;9815;52.334;20.890;2023-12-20T13:17:36;24.10;;;13.63;;
19358;SDS011;9815;52.334;20.890;2023-12-20T13:20:06;24.83;;;11.37;;
19358;SDS011;9815;52.334;20.890;2023-12-20T13:22:35;21.00;;;12.30;;
19358;SDS011;9815;52.334;20.890;2023-12-20T13:25:04;23.10;;;12.27;;
19358;SDS011;9815;52.334;20.890;2023-12-20T13:27:33;23.83;;;13.17;;
19358;SDS011;9815;52.334;20.890;2023-12-20T13:30:02;24.43;;;12.37;;
19358;SDS011;9815;52.334;20.890;2023-12-20T13:32:33;23.40;;;13.30;;
19358;SDS011;9815;52.334;20.890;2023-12-20T13:35:02;23.10;;;12.30;;
19358;SDS011;9815;52.334;20.890;2023-12-20T13:37:31;28.73;;;14.17;;
19358;SDS011;9815;52.334;20.890;2023-12-20T13:40:00;36.57;;;17.70;;
19358;SDS011;9815;52.334;20.890;2023-12-20T13:42:28;27.20;;;15.20;;
19358;SDS011;9815;52.334;20.890;2023-12-20T13:44:56;27.40;;;14.23;;
19358;SDS011;9815;52.334;20.890;2023-12-20T13:47:25;32.50;;;15.50;;
19358;SDS011;9815;52.334;20.890;2023-12-20T13:49:55;25.80;;;13.00;;
19358;SDS011;9815;52.334;20.890;2023-12-20T13:52:24;23.83;;;13.43;;
19358;SDS011;9815;52.334;20.890;2023-12-20T13:54:53;23.93;;;13.03;;
19358;SDS011;9815;52.334;20.890;2023-12-20T13:57:21;27.13;;;13.60;;
19358;SDS011;9815;52.334;20.890;2023-12-20T14:00:10;25.03;;;13.03;;
19358;SDS011;9815;52.334;20.890;2023-12-20T14:02:41;25.03;;;12.53;;
19358;SDS011;9815;52.334;20.890;2023-12-20T14:05:11;30.20;;;13.90;;
19358;SDS011;9815;52.334;20.890;2023-12-20T14:07:41;25.37;;;12.73;;
19358;SDS011;9815;52.334;20.890;2023-12-20T14:10:13;23.23;;;12.87;;
19358;SDS011;9815;52.334;20.890;2023-12-20T14:12:42;30.30;;;13.23;;
19358;SDS011;9815;52.334;20.890;2023-12-20T14:15:11;30.07;;;13.47;;
19358;SDS011;9815;52.334;20.890;2023-12-20T14:17:40;22.43;;;12.40;;
19358;SDS011;9815;52.334;20.890;2023-12-20T14:20:12;24.50;;;12.77;;
19358;SDS011;9815;52.334;20.890;2023-12-20T14:22:40;24.20;;;13.13;;
19358;SDS011;9815;52.334;20.890;2023-12-20T14:25:12;26.73;;;12.53;;
19358;SDS011;9815;52.334;20.890;2023-12-20T14:27:41;21.53;;;11.50;;
19358;SDS011;9815;52.334;20.890;2023-12-20T14:30:12;25.53;;;12.17;;
19358;SDS011;9815;52.334;20.890;2023-12-20T14:32:43;20.03;;;10.37;;
19358;SDS011;9815;52.334;20.890;2023-12-20T14:35:13;21.80;;;10.57;;
19358;SDS011;9815;52.334;20.890;2023-12-20T14:37:42;20.20;;;11.13;;